createdAt,value
2019-05-13T00:13:40.299Z,11.84
2019-05-13T00:33:48.236Z,10.07
2019-05-13T00:53:57.713Z,10.32
2019-05-13T01:14:07.093Z,10.99
2019-05-13T01:34:16.577Z,13.10
2019-05-13T01:54:26.021Z,14.37
2019-05-13T02:14:35.377Z,14.57
2019-05-13T02:34:44.694Z,12.93
2019-05-13T02:54:54.136Z,12.28
2019-05-13T03:15:08.236Z,12.66
2019-05-13T03:35:09.178Z,12.64
2019-05-13T03:55:08.762Z,12.47
2019-05-13T04:15:18.350Z,12.35
2019-05-13T04:35:27.920Z,12.20
2019-05-13T04:55:37.395Z,13.21
2019-05-13T05:15:46.748Z,12.33
2019-05-13T05:35:54.930Z,13.10
2019-05-13T05:56:04.395Z,13.36
2019-05-13T06:16:13.841Z,9.75
2019-05-13T06:36:26.312Z,9.18
2019-05-13T06:56:25.832Z,8.39
2019-05-13T07:16:42.064Z,9.03
2019-05-13T07:36:39.098Z,10.31
2019-05-13T07:56:48.458Z,8.24
2019-05-13T08:16:57.835Z,6.39
2019-05-13T08:37:11.781Z,7.81
2019-05-13T08:57:11.891Z,7.25
2019-05-13T09:17:21.363Z,5.17
2019-05-13T09:37:31.641Z,5.36
2019-05-13T09:57:38.145Z,6.52
2019-05-13T10:17:52.520Z,5.98
2019-05-13T10:37:48.733Z,8.01
2019-05-13T10:57:58.177Z,9.59
2019-05-13T11:18:14.247Z,4.60
2019-05-13T11:38:16.475Z,6.80
2019-05-13T11:58:26.001Z,5.95
2019-05-13T12:18:43.131Z,5.16
2019-05-13T12:38:44.570Z,6.54
2019-05-13T12:58:56.002Z,5.88
2019-05-13T13:18:55.459Z,5.49
2019-05-13T13:39:04.890Z,4.80
2019-05-13T13:59:14.494Z,5.39
2019-05-13T14:19:23.796Z,6.32
2019-05-13T14:39:35.861Z,5.87
2019-05-13T14:59:42.297Z,5.84
2019-05-13T15:19:52.454Z,6.18
2019-05-13T15:40:02.329Z,6.58
2019-05-13T16:00:08.234Z,8.41
2019-05-13T16:20:17.918Z,8.59
2019-05-13T16:40:27.368Z,7.96
2019-05-13T17:00:39.198Z,5.27
2019-05-13T17:20:38.730Z,5.18
2019-05-13T17:40:50.147Z,6.18
2019-05-13T18:00:58.183Z,6.98
2019-05-13T18:20:57.789Z,7.65
2019-05-13T18:41:12.655Z,10.28
2019-05-13T19:01:12.336Z,7.74
2019-05-13T19:21:22.070Z,7.45
2019-05-13T19:41:31.613Z,7.28
2019-05-13T20:01:42.299Z,9.28
2019-05-13T20:21:51.738Z,7.70
2019-05-13T20:42:01.118Z,8.82
2019-05-13T21:02:06.638Z,9.28
2019-05-13T21:22:15.968Z,10.78
2019-05-13T21:42:25.332Z,12.47
2019-05-13T22:02:34.720Z,11.64
2019-05-13T22:22:44.070Z,11.08
2019-05-13T22:42:56.603Z,11.34
2019-05-13T23:03:07.076Z,12.87
2019-05-13T23:23:08.820Z,12.74
2019-05-13T23:43:08.303Z,13.19
